sensor_id;sensor_type;location;lat;lon;timestamp;P1;durP1;ratioP1;P2;durP2;ratioP2
7683;SDS011;3884;48.616;12.872;2023-03-01T00:01:34;21.30;;;15.63;;
7683;SDS011;3884;48.616;12.872;2023-03-01T00:04:01;20.93;;;15.43;;
7683;SDS011;3884;48.616;12.872;2023-03-01T00:06:29;19.50;;;15.27;;
7683;SDS011;3884;48.616;12.872;2023-03-01T00:08:56;17.90;;;14.90;;
7683;SDS011;3884;48.616;12.872;2023-03-01T00:11:25;17.53;;;14.87;;
7683;SDS011;3884;48.616;12.872;2023-03-01T00:13:54;18.47;;;15.47;;
7683;SDS011;3884;48.616;12.872;2023-03-01T00:16:26;18.53;;;15.33;;
7683;SDS011;3884;48.616;12.872;2023-03-01T00:18:54;19.63;;;15.83;;
7683;SDS011;3884;48.616;12.872;2023-03-01T00:21:21;21.80;;;16.77;;
7683;SDS011;3884;48.616;12.872;2023-03-01T00:23:50;20.33;;;15.77;;
7683;SDS011;3884;48.616;12.872;2023-03-01T00:26:17;20.70;;;15.97;;
7683;SDS011;3884;48.616;12.872;2023-03-01T00:28:46;19.87;;;14.93;;
7683;SDS011;3884;48.616;12.872;2023-03-01T00:31:14;20.63;;;16.10;;
7683;SDS011;3884;48.616;12.872;2023-03-01T00:33:43;20.37;;;16.03;;
7683;SDS011;3884;48.616;12.872;2023-03-01T00:36:11;19.17;;;15.33;;
7683;SDS011;3884;48.616;12.872;2023-03-01T00:38:40;18.63;;;15.73;;
7683;SDS011;3884;48.616;12.872;2023-03-01T00:41:11;21.87;;;16.33;;
7683;SDS011;3884;48.616;12.872;2023-03-01T00:43:39;21.07;;;16.63;;
7683;SDS011;3884;48.616;12.872;2023-03-01T00:46:08;20.43;;;16.17;;
7683;SDS011;3884;48.616;12.872;2023-03-01T00:48:36;22.20;;;16.90;;
7683;SDS011;3884;48.616;12.872;2023-03-01T00:51:04;27.07;;;16.83;;
7683;SDS011;3884;48.616;12.872;2023-03-01T00:53:32;20.03;;;15.63;;
7683;SDS011;3884;48.616;12.872;2023-03-01T00:56:00;20.47;;;16.47;;
7683;SDS011;3884;48.616;12.872;2023-03-01T00:58:28;19.73;;;16.00;;
7683;SDS011;3884;48.616;12.872;2023-03-01T01:00:56;19.83;;;16.63;;
7683;SDS011;3884;48.616;12.872;2023-03-01T01:03:24;20.03;;;15.80;;
7683;SDS011;3884;48.616;12.872;2023-03-01T01:05:51;19.67;;;15.57;;
7683;SDS011;3884;48.616;12.872;2023-03-01T01:08:18;19.10;;;15.57;;
7683;SDS011;3884;48.616;12.872;2023-03-01T01:10:46;19.80;;;16.07;;
7683;SDS011;3884;48.616;12.872;2023-03-01T01:13:13;19.87;;;16.50;;
7683;SDS011;3884;48.616;12.872;2023-03-01T01:15:42;24.37;;;17.73;;
7683;SDS011;3884;48.616;12.872;2023-03-01T01:18:09;21.40;;;17.27;;
7683;SDS011;3884;48.616;12.872;2023-03-01T01:20:36;20.93;;;17.47;;
7683;SDS011;3884;48.616;12.872;2023-03-01T01:23:05;20.00;;;17.13;;
7683;SDS011;3884;48.616;12.872;2023-03-01T01:25:34;21.90;;;17.37;;
7683;SDS011;3884;48.616;12.872;2023-03-01T01:28:02;21.03;;;16.53;;
7683;SDS011;3884;48.616;12.872;2023-03-01T01:30:29;21.20;;;17.00;;
7683;SDS011;3884;48.616;12.872;2023-03-01T01:32:58;22.93;;;16.63;;
7683;SDS011;3884;48.616;12.872;2023-03-01T01:35:25;21.80;;;16.80;;
7683;SDS011;3884;48.616;12.872;2023-03-01T01:37:52;23.60;;;17.23;;
7683;SDS011;3884;48.616;12.872;2023-03-01T01:40:19;21.33;;;16.43;;
7683;SDS011;3884;48.616;12.872;2023-03-01T01:42:46;23.80;;;17.30;;
7683;SDS011;3884;48.616;12.872;2023-03-01T01:45:24;21.80;;;17.10;;
7683;SDS011;3884;48.616;12.872;2023-03-01T01:48:00;21.00;;;17.10;;
7683;SDS011;3884;48.616;12.872;2023-03-01T01:50:31;20.43;;;16.93;;
7683;SDS011;3884;48.616;12.872;2023-03-01T01:53:05;22.17;;;16.63;;
7683;SDS011;3884;48.616;12.872;2023-03-01T01:55:35;21.00;;;16.83;;
7683;SDS011;3884;48.616;12.872;2023-03-01T01:58:06;19.97;;;16.17;;
7683;SDS011;3884;48.616;12.872;2023-03-01T02:00:36;22.37;;;17.37;;
7683;SDS011;3884;48.616;12.872;2023-03-01T02:03:08;23.30;;;16.67;;
7683;SDS011;3884;48.616;12.872;2023-03-01T02:05:38;22.80;;;17.23;;
7683;SDS011;3884;48.616;12.872;2023-03-01T02:08:11;22.80;;;17.30;;
7683;SDS011;3884;48.616;12.872;2023-03-01T02:10:40;22.57;;;17.60;;
7683;SDS011;3884;48.616;12.872;2023-03-01T02:13:09;24.73;;;18.07;;
7683;SDS011;3884;48.616;12.872;2023-03-01T02:15:37;21.10;;;17.07;;
7683;SDS011;3884;48.616;12.872;2023-03-01T02:18:07;23.00;;;17.57;;
7683;SDS011;3884;48.616;12.872;2023-03-01T02:20:38;21.63;;;16.77;;
7683;SDS011;3884;48.616;12.872;2023-03-01T02:23:14;22.53;;;18.37;;
7683;SDS011;3884;48.616;12.872;2023-03-01T02:25:44;22.47;;;17.27;;
7683;SDS011;3884;48.616;12.872;2023-03-01T02:28:26;21.13;;;16.77;;
7683;SDS011;3884;48.616;12.872;2023-03-01T02:30:56;23.73;;;18.77;;
7683;SDS011;3884;48.616;12.872;2023-03-01T02:33:40;22.60;;;18.43;;
7683;SDS011;3884;48.616;12.872;2023-03-01T02:36:10;22.43;;;17.60;;
7683;SDS011;3884;48.616;12.872;2023-03-01T02:38:41;23.50;;;18.50;;
7683;SDS011;3884;48.616;12.872;2023-03-01T02:41:09;24.77;;;17.97;;
7683;SDS011;3884;48.616;12.872;2023-03-01T02:43:40;25.10;;;19.13;;
7683;SDS011;3884;48.616;12.872;2023-03-01T02:46:12;21.37;;;17.30;;
7683;SDS011;3884;48.616;12.872;2023-03-01T02:48:42;25.07;;;17.60;;
7683;SDS011;3884;48.616;12.872;2023-03-01T02:54:14;23.80;;;19.02;;
7683;SDS011;3884;48.616;12.872;2023-03-01T02:56:47;22.33;;;16.97;;
7683;SDS011;3884;48.616;12.872;2023-03-01T02:59:19;26.10;;;17.90;;
7683;SDS011;3884;48.616;12.872;2023-03-01T03:01:48;23.17;;;18.03;;
7683;SDS011;3884;48.616;12.872;2023-03-01T03:04:16;21.47;;;17.33;;
7683;SDS011;3884;48.616;12.872;2023-03-01T03:06:48;23.77;;;18.30;;
7683;SDS011;3884;48.616;12.872;2023-03-01T03:09:17;24.70;;;17.80;;
7683;SDS011;3884;48.616;12.872;2023-03-01T03:11:45;21.57;;;17.80;;
7683;SDS011;3884;48.616;12.872;2023-03-01T03:14:13;25.07;;;18.90;;
7683;SDS011;3884;48.616;12.872;2023-03-01T03:16:46;24.20;;;18.20;;
7683;SDS011;3884;48.616;12.872;2023-03-01T03:19:16;24.00;;;18.53;;
7683;SDS011;3884;48.616;12.872;2023-03-01T03:21:44;24.57;;;18.10;;
7683;SDS011;3884;48.616;12.872;2023-03-01T03:24:12;23.70;;;18.60;;
7683;SDS011;3884;48.616;12.872;2023-03-01T03:26:39;25.47;;;18.60;;
7683;SDS011;3884;48.616;12.872;2023-03-01T03:29:06;24.83;;;19.00;;
7683;SDS011;3884;48.616;12.872;2023-03-01T03:31:33;23.07;;;17.67;;
7683;SDS011;3884;48.616;12.872;2023-03-01T03:34:01;24.10;;;18.30;;
7683;SDS011;3884;48.616;12.872;2023-03-01T03:36:29;23.60;;;18.20;;
7683;SDS011;3884;48.616;12.872;2023-03-01T03:38:56;24.07;;;18.23;;
7683;SDS011;3884;48.616;12.872;2023-03-01T03:41:23;25.27;;;19.30;;
7683;SDS011;3884;48.616;12.872;2023-03-01T03:43:50;22.87;;;18.20;;
7683;SDS011;3884;48.616;12.872;2023-03-01T03:46:17;25.90;;;18.73;;
7683;SDS011;3884;48.616;12.872;2023-03-01T03:48:44;22.20;;;17.90;;
7683;SDS011;3884;48.616;12.872;2023-03-01T03:51:13;25.70;;;19.30;;
7683;SDS011;3884;48.616;12.872;2023-03-01T03:53:41;26.90;;;19.93;;
7683;SDS011;3884;48.616;12.872;2023-03-01T03:56:09;27.53;;;19.40;;
7683;SDS011;3884;48.616;12.872;2023-03-01T03:58:36;25.27;;;19.33;;
7683;SDS011;3884;48.616;12.872;2023-03-01T04:01:04;23.90;;;18.77;;
7683;SDS011;3884;48.616;12.872;2023-03-01T04:03:31;25.57;;;19.40;;
7683;SDS011;3884;48.616;12.872;2023-03-01T04:06:00;24.53;;;19.23;;
7683;SDS011;3884;48.616;12.872;2023-03-01T04:08:30;25.23;;;19.23;;
7683;SDS011;3884;48.616;12.872;2023-03-01T04:10:58;26.27;;;20.33;;
7683;SDS011;3884;48.616;12.872;2023-03-01T04:13:46;25.00;;;18.93;;
7683;SDS011;3884;48.616;12.872;2023-03-01T04:16:14;24.67;;;18.60;;
7683;SDS011;3884;48.616;12.872;2023-03-01T04:18:41;25.03;;;19.57;;
7683;SDS011;3884;48.616;12.872;2023-03-01T04:21:08;27.93;;;20.00;;
7683;SDS011;3884;48.616;12.872;2023-03-01T04:23:37;26.07;;;20.73;;
7683;SDS011;3884;48.616;12.872;2023-03-01T04:26:06;26.37;;;19.50;;
7683;SDS011;3884;48.616;12.872;2023-03-01T04:28:33;26.27;;;19.73;;
7683;SDS011;3884;48.616;12.872;2023-03-01T04:31:03;27.80;;;20.83;;
7683;SDS011;3884;48.616;12.872;2023-03-01T04:33:38;25.70;;;19.97;;
7683;SDS011;3884;48.616;12.872;2023-03-01T04:36:05;25.90;;;19.73;;
7683;SDS011;3884;48.616;12.872;2023-03-01T04:38:34;27.10;;;20.83;;
7683;SDS011;3884;48.616;12.872;2023-03-01T04:41:03;27.47;;;19.70;;
7683;SDS011;3884;48.616;12.872;2023-03-01T04:43:31;25.80;;;19.77;;
7683;SDS011;3884;48.616;12.872;2023-03-01T04:46:02;24.63;;;19.43;;
7683;SDS011;3884;48.616;12.872;2023-03-01T04:48:31;25.70;;;19.93;;
7683;SDS011;3884;48.616;12.872;2023-03-01T04:50:59;24.80;;;18.87;;
7683;SDS011;3884;48.616;12.872;2023-03-01T04:53:26;27.10;;;20.43;;
7683;SDS011;3884;48.616;12.872;2023-03-01T04:55:54;27.73;;;19.63;;
7683;SDS011;3884;48.616;12.872;2023-03-01T04:58:23;26.10;;;18.90;;
7683;SDS011;3884;48.616;12.872;2023-03-01T05:00:51;25.73;;;19.20;;
7683;SDS011;3884;48.616;12.872;2023-03-01T05:03:19;26.57;;;20.13;;
7683;SDS011;3884;48.616;12.872;2023-03-01T05:05:49;26.60;;;19.83;;
7683;SDS011;3884;48.616;12.872;2023-03-01T05:08:17;26.47;;;20.00;;
7683;SDS011;3884;48.616;12.872;2023-03-01T05:10:44;25.33;;;19.60;;
7683;SDS011;3884;48.616;12.872;2023-03-01T05:13:13;24.77;;;19.13;;
7683;SDS011;3884;48.616;12.872;2023-03-01T05:15:47;27.10;;;20.20;;
7683;SDS011;3884;48.616;12.872;2023-03-01T05:18:19;27.10;;;19.97;;
7683;SDS011;3884;48.616;12.872;2023-03-01T05:20:50;25.90;;;19.50;;
7683;SDS011;3884;48.616;12.872;2023-03-01T05:23:18;28.47;;;20.23;;
7683;SDS011;3884;48.616;12.872;2023-03-01T05:25:45;29.43;;;21.10;;
7683;SDS011;3884;48.616;12.872;2023-03-01T05:28:12;26.50;;;20.33;;
7683;SDS011;3884;48.616;12.872;2023-03-01T05:30:40;27.03;;;20.93;;
7683;SDS011;3884;48.616;12.872;2023-03-01T05:33:08;24.10;;;18.97;;
7683;SDS011;3884;48.616;12.872;2023-03-01T05:35:38;26.13;;;19.63;;
7683;SDS011;3884;48.616;12.872;2023-03-01T05:38:07;23.27;;;18.60;;
7683;SDS011;3884;48.616;12.872;2023-03-01T05:40:34;26.57;;;19.97;;
7683;SDS011;3884;48.616;12.872;2023-03-01T05:43:01;23.83;;;19.20;;
7683;SDS011;3884;48.616;12.872;2023-03-01T05:45:30;26.70;;;20.13;;
7683;SDS011;3884;48.616;12.872;2023-03-01T05:47:58;25.80;;;20.00;;
7683;SDS011;3884;48.616;12.872;2023-03-01T05:50:28;25.43;;;19.33;;
7683;SDS011;3884;48.616;12.872;2023-03-01T05:52:57;24.73;;;19.83;;
7683;SDS011;3884;48.616;12.872;2023-03-01T05:55:26;23.80;;;19.40;;
7683;SDS011;3884;48.616;12.872;2023-03-01T05:57:54;24.67;;;19.67;;
7683;SDS011;3884;48.616;12.872;2023-03-01T06:00:21;27.10;;;19.97;;
7683;SDS011;3884;48.616;12.872;2023-03-01T06:02:49;27.70;;;20.83;;
7683;SDS011;3884;48.616;12.872;2023-03-01T06:05:17;24.43;;;18.70;;
7683;SDS011;3884;48.616;12.872;2023-03-01T06:07:46;26.13;;;19.33;;
7683;SDS011;3884;48.616;12.872;2023-03-01T06:10:13;26.57;;;20.03;;
7683;SDS011;3884;48.616;12.872;2023-03-01T06:12:41;26.27;;;20.20;;
7683;SDS011;3884;48.616;12.872;2023-03-01T06:15:09;27.17;;;19.40;;
7683;SDS011;3884;48.616;12.872;2023-03-01T06:17:37;23.77;;;19.33;;
7683;SDS011;3884;48.616;12.872;2023-03-01T06:20:06;27.23;;;19.23;;
7683;SDS011;3884;48.616;12.872;2023-03-01T06:22:35;28.13;;;20.10;;
7683;SDS011;3884;48.616;12.872;2023-03-01T06:25:04;27.57;;;19.57;;
7683;SDS011;3884;48.616;12.872;2023-03-01T06:27:32;27.40;;;20.57;;
7683;SDS011;3884;48.616;12.872;2023-03-01T06:30:00;28.57;;;19.63;;
7683;SDS011;3884;48.616;12.872;2023-03-01T06:32:27;26.63;;;19.83;;
7683;SDS011;3884;48.616;12.872;2023-03-01T06:34:55;26.70;;;21.53;;
7683;SDS011;3884;48.616;12.872;2023-03-01T06:37:23;28.70;;;21.47;;
7683;SDS011;3884;48.616;12.872;2023-03-01T06:39:50;29.97;;;21.87;;
7683;SDS011;3884;48.616;12.872;2023-03-01T06:42:19;31.13;;;21.57;;
7683;SDS011;3884;48.616;12.872;2023-03-01T06:44:46;28.77;;;21.97;;
7683;SDS011;3884;48.616;12.872;2023-03-01T06:47:13;27.50;;;21.37;;
7683;SDS011;3884;48.616;12.872;2023-03-01T06:49:40;26.83;;;21.10;;
7683;SDS011;3884;48.616;12.872;2023-03-01T06:52:07;24.87;;;19.73;;
7683;SDS011;3884;48.616;12.872;2023-03-01T06:54:34;28.13;;;20.73;;
7683;SDS011;3884;48.616;12.872;2023-03-01T06:57:01;29.40;;;22.50;;
7683;SDS011;3884;48.616;12.872;2023-03-01T06:59:30;26.70;;;20.50;;
7683;SDS011;3884;48.616;12.872;2023-03-01T07:01:57;28.80;;;21.30;;
7683;SDS011;3884;48.616;12.872;2023-03-01T07:04:24;29.43;;;22.40;;
7683;SDS011;3884;48.616;12.872;2023-03-01T07:06:53;31.50;;;25.80;;
7683;SDS011;3884;48.616;12.872;2023-03-01T07:09:21;32.80;;;24.70;;
7683;SDS011;3884;48.616;12.872;2023-03-01T07:11:48;33.03;;;25.17;;
7683;SDS011;3884;48.616;12.872;2023-03-01T07:14:17;28.63;;;20.60;;
7683;SDS011;3884;48.616;12.872;2023-03-01T07:16:46;30.20;;;23.40;;
7683;SDS011;3884;48.616;12.872;2023-03-01T07:19:14;25.87;;;20.23;;
7683;SDS011;3884;48.616;12.872;2023-03-01T07:21:41;28.67;;;21.53;;
7683;SDS011;3884;48.616;12.872;2023-03-01T07:24:08;27.53;;;21.37;;
7683;SDS011;3884;48.616;12.872;2023-03-01T07:26:35;27.70;;;19.93;;
7683;SDS011;3884;48.616;12.872;2023-03-01T07:29:03;27.57;;;21.70;;
7683;SDS011;3884;48.616;12.872;2023-03-01T07:31:31;34.00;;;25.07;;
7683;SDS011;3884;48.616;12.872;2023-03-01T07:34:00;29.20;;;22.20;;
7683;SDS011;3884;48.616;12.872;2023-03-01T07:36:27;28.07;;;21.40;;
7683;SDS011;3884;48.616;12.872;2023-03-01T07:38:54;25.50;;;19.40;;
7683;SDS011;3884;48.616;12.872;2023-03-01T07:41:23;25.57;;;19.20;;
7683;SDS011;3884;48.616;12.872;2023-03-01T07:43:50;23.87;;;18.47;;
7683;SDS011;3884;48.616;12.872;2023-03-01T07:46:16;27.20;;;19.10;;
7683;SDS011;3884;48.616;12.872;2023-03-01T07:48:44;25.50;;;19.23;;
7683;SDS011;3884;48.616;12.872;2023-03-01T07:51:12;24.47;;;18.00;;
7683;SDS011;3884;48.616;12.872;2023-03-01T07:53:39;24.30;;;17.40;;
7683;SDS011;3884;48.616;12.872;2023-03-01T07:56:07;25.33;;;17.77;;
7683;SDS011;3884;48.616;12.872;2023-03-01T07:58:36;23.13;;;17.63;;
7683;SDS011;3884;48.616;12.872;2023-03-01T08:01:04;25.50;;;17.97;;
7683;SDS011;3884;48.616;12.872;2023-03-01T08:03:32;24.33;;;18.13;;
7683;SDS011;3884;48.616;12.872;2023-03-01T08:05:59;24.33;;;18.10;;
7683;SDS011;3884;48.616;12.872;2023-03-01T08:08:28;25.67;;;17.70;;
7683;SDS011;3884;48.616;12.872;2023-03-01T08:10:56;20.77;;;16.77;;
7683;SDS011;3884;48.616;12.872;2023-03-01T08:13:23;20.50;;;17.30;;
7683;SDS011;3884;48.616;12.872;2023-03-01T08:15:50;22.40;;;16.90;;
7683;SDS011;3884;48.616;12.872;2023-03-01T08:18:18;22.37;;;17.83;;
7683;SDS011;3884;48.616;12.872;2023-03-01T08:20:46;25.67;;;17.63;;
7683;SDS011;3884;48.616;12.872;2023-03-01T08:23:13;22.13;;;16.47;;
7683;SDS011;3884;48.616;12.872;2023-03-01T08:25:42;22.93;;;16.90;;
7683;SDS011;3884;48.616;12.872;2023-03-01T08:28:09;24.97;;;17.40;;
7683;SDS011;3884;48.616;12.872;2023-03-01T08:30:36;22.63;;;17.80;;
7683;SDS011;3884;48.616;12.872;2023-03-01T08:33:03;25.87;;;18.10;;
7683;SDS011;3884;48.616;12.872;2023-03-01T08:35:30;26.23;;;20.07;;
7683;SDS011;3884;48.616;12.872;2023-03-01T08:37:57;25.17;;;17.80;;
7683;SDS011;3884;48.616;12.872;2023-03-01T08:40:24;22.43;;;17.10;;
7683;SDS011;3884;48.616;12.872;2023-03-01T08:42:52;22.60;;;17.73;;
7683;SDS011;3884;48.616;12.872;2023-03-01T08:45:19;23.17;;;17.30;;
7683;SDS011;3884;48.616;12.872;2023-03-01T08:47:46;21.90;;;16.63;;
7683;SDS011;3884;48.616;12.872;2023-03-01T08:50:13;22.83;;;17.97;;
7683;SDS011;3884;48.616;12.872;2023-03-01T08:52:40;20.63;;;17.23;;
7683;SDS011;3884;48.616;12.872;2023-03-01T08:55:08;27.80;;;20.07;;
7683;SDS011;3884;48.616;12.872;2023-03-01T08:57:35;22.23;;;17.63;;
7683;SDS011;3884;48.616;12.872;2023-03-01T09:00:04;23.57;;;18.43;;
7683;SDS011;3884;48.616;12.872;2023-03-01T09:02:34;21.20;;;16.97;;
7683;SDS011;3884;48.616;12.872;2023-03-01T09:05:01;22.23;;;16.73;;
7683;SDS011;3884;48.616;12.872;2023-03-01T09:07:28;23.43;;;17.43;;
7683;SDS011;3884;48.616;12.872;2023-03-01T09:09:55;22.73;;;17.03;;
7683;SDS011;3884;48.616;12.872;2023-03-01T09:12:22;21.93;;;17.70;;
7683;SDS011;3884;48.616;12.872;2023-03-01T09:14:50;23.30;;;16.97;;
7683;SDS011;3884;48.616;12.872;2023-03-01T09:17:18;21.53;;;16.47;;
7683;SDS011;3884;48.616;12.872;2023-03-01T09:19:46;23.30;;;16.33;;
7683;SDS011;3884;48.616;12.872;2023-03-01T09:22:14;20.23;;;16.57;;
7683;SDS011;3884;48.616;12.872;2023-03-01T09:24:41;21.10;;;16.27;;
7683;SDS011;3884;48.616;12.872;2023-03-01T09:27:08;18.77;;;15.07;;
7683;SDS011;3884;48.616;12.872;2023-03-01T09:29:36;18.60;;;14.97;;
7683;SDS011;3884;48.616;12.872;2023-03-01T09:32:03;19.43;;;15.30;;
7683;SDS011;3884;48.616;12.872;2023-03-01T09:34:32;19.70;;;14.80;;
7683;SDS011;3884;48.616;12.872;2023-03-01T09:37:19;19.83;;;15.50;;
7683;SDS011;3884;48.616;12.872;2023-03-01T09:39:46;21.47;;;16.27;;
7683;SDS011;3884;48.616;12.872;2023-03-01T09:42:13;21.53;;;16.40;;
7683;SDS011;3884;48.616;12.872;2023-03-01T09:44:42;21.27;;;16.13;;
7683;SDS011;3884;48.616;12.872;2023-03-01T09:47:14;21.67;;;15.07;;
7683;SDS011;3884;48.616;12.872;2023-03-01T09:49:46;21.17;;;15.33;;
7683;SDS011;3884;48.616;12.872;2023-03-01T09:52:29;19.03;;;15.73;;
7683;SDS011;3884;48.616;12.872;2023-03-01T09:55:00;20.20;;;15.13;;
7683;SDS011;3884;48.616;12.872;2023-03-01T09:57:29;21.83;;;16.03;;
7683;SDS011;3884;48.616;12.872;2023-03-01T10:00:13;20.67;;;15.83;;
7683;SDS011;3884;48.616;12.872;2023-03-01T10:02:47;20.53;;;14.87;;
7683;SDS011;3884;48.616;12.872;2023-03-01T10:11:03;20.80;;;15.77;;
7683;SDS011;3884;48.616;12.872;2023-03-01T10:13:33;23.57;;;15.67;;
7683;SDS011;3884;48.616;12.872;2023-03-01T10:16:10;18.90;;;15.00;;
7683;SDS011;3884;48.616;12.872;2023-03-01T10:18:41;19.87;;;14.17;;
7683;SDS011;3884;48.616;12.872;2023-03-01T10:21:16;18.47;;;15.10;;
7683;SDS011;3884;48.616;12.872;2023-03-01T10:23:46;20.43;;;15.90;;
7683;SDS011;3884;48.616;12.872;2023-03-01T10:26:21;19.60;;;15.90;;
7683;SDS011;3884;48.616;12.872;2023-03-01T10:29:01;21.03;;;15.40;;
7683;SDS011;3884;48.616;12.872;2023-03-01T10:31:33;20.87;;;15.77;;
7683;SDS011;3884;48.616;12.872;2023-03-01T10:34:13;21.60;;;15.87;;
7683;SDS011;3884;48.616;12.872;2023-03-01T10:36:43;20.13;;;15.17;;
7683;SDS011;3884;48.616;12.872;2023-03-01T10:39:15;18.53;;;14.83;;
7683;SDS011;3884;48.616;12.872;2023-03-01T10:44:45;17.40;;;14.23;;
7683;SDS011;3884;48.616;12.872;2023-03-01T10:47:18;20.73;;;14.23;;
7683;SDS011;3884;48.616;12.872;2023-03-01T10:49:51;20.73;;;14.40;;
7683;SDS011;3884;48.616;12.872;2023-03-01T10:52:29;18.37;;;15.10;;
7683;SDS011;3884;48.616;12.872;2023-03-01T10:54:59;20.13;;;14.73;;
7683;SDS011;3884;48.616;12.872;2023-03-01T10:57:33;19.47;;;15.00;;
7683;SDS011;3884;48.616;12.872;2023-03-01T11:00:19;19.10;;;14.20;;
7683;SDS011;3884;48.616;12.872;2023-03-01T11:02:50;19.00;;;15.00;;
7683;SDS011;3884;48.616;12.872;2023-03-01T11:05:29;19.10;;;15.07;;
7683;SDS011;3884;48.616;12.872;2023-03-01T11:08:00;18.70;;;15.63;;
7683;SDS011;3884;48.616;12.872;2023-03-01T11:10:29;20.67;;;15.00;;
7683;SDS011;3884;48.616;12.872;2023-03-01T11:13:07;19.47;;;14.07;;
7683;SDS011;3884;48.616;12.872;2023-03-01T11:15:40;19.97;;;14.83;;
7683;SDS011;3884;48.616;12.872;2023-03-01T11:18:17;17.60;;;14.40;;
7683;SDS011;3884;48.616;12.872;2023-03-01T11:20:46;18.33;;;14.87;;
7683;SDS011;3884;48.616;12.872;2023-03-01T11:23:16;19.80;;;14.60;;
7683;SDS011;3884;48.616;12.872;2023-03-01T11:25:47;17.83;;;14.27;;
7683;SDS011;3884;48.616;12.872;2023-03-01T11:28:19;18.27;;;14.90;;
7683;SDS011;3884;48.616;12.872;2023-03-01T11:30:49;19.30;;;15.47;;
7683;SDS011;3884;48.616;12.872;2023-03-01T11:33:31;17.43;;;14.27;;
7683;SDS011;3884;48.616;12.872;2023-03-01T11:36:05;19.20;;;15.23;;
7683;SDS011;3884;48.616;12.872;2023-03-01T11:38:43;19.73;;;14.57;;
7683;SDS011;3884;48.616;12.872;2023-03-01T11:41:12;17.80;;;13.87;;
7683;SDS011;3884;48.616;12.872;2023-03-01T11:43:45;20.30;;;14.83;;
7683;SDS011;3884;48.616;12.872;2023-03-01T11:49:36;16.83;;;13.50;;
7683;SDS011;3884;48.616;12.872;2023-03-01T11:52:27;16.33;;;14.17;;
7683;SDS011;3884;48.616;12.872;2023-03-01T11:55:12;18.83;;;14.30;;
7683;SDS011;3884;48.616;12.872;2023-03-01T11:58:02;17.73;;;13.47;;
7683;SDS011;3884;48.616;12.872;2023-03-01T12:00:47;18.03;;;13.43;;
7683;SDS011;3884;48.616;12.872;2023-03-01T12:03:28;18.23;;;14.03;;
7683;SDS011;3884;48.616;12.872;2023-03-01T12:06:12;16.63;;;12.63;;
7683;SDS011;3884;48.616;12.872;2023-03-01T12:09:14;16.63;;;13.80;;
7683;SDS011;3884;48.616;12.872;2023-03-01T12:12:09;17.00;;;14.07;;
7683;SDS011;3884;48.616;12.872;2023-03-01T12:15:00;15.83;;;12.63;;
7683;SDS011;3884;48.616;12.872;2023-03-01T12:17:54;17.00;;;13.23;;
7683;SDS011;3884;48.616;12.872;2023-03-01T12:20:33;15.90;;;13.20;;
7683;SDS011;3884;48.616;12.872;2023-03-01T12:26:10;18.03;;;13.20;;
7683;SDS011;3884;48.616;12.872;2023-03-01T12:28:48;17.73;;;12.93;;
7683;SDS011;3884;48.616;12.872;2023-03-01T12:31:32;17.87;;;13.50;;
7683;SDS011;3884;48.616;12.872;2023-03-01T12:34:13;17.57;;;12.37;;
7683;SDS011;3884;48.616;12.872;2023-03-01T12:39:50;15.17;;;12.13;;
7683;SDS011;3884;48.616;12.872;2023-03-01T12:42:30;17.00;;;13.07;;
7683;SDS011;3884;48.616;12.872;2023-03-01T12:45:16;15.23;;;13.03;;
7683;SDS011;3884;48.616;12.872;2023-03-01T12:47:59;14.60;;;12.53;;
7683;SDS011;3884;48.616;12.872;2023-03-01T12:50:37;17.87;;;12.33;;
7683;SDS011;3884;48.616;12.872;2023-03-01T12:53:10;16.73;;;11.63;;
7683;SDS011;3884;48.616;12.872;2023-03-01T12:55:48;14.60;;;11.70;;
7683;SDS011;3884;48.616;12.872;2023-03-01T12:58:20;15.67;;;12.23;;
7683;SDS011;3884;48.616;12.872;2023-03-01T13:00:57;17.37;;;12.77;;
7683;SDS011;3884;48.616;12.872;2023-03-01T13:03:46;19.03;;;12.77;;
7683;SDS011;3884;48.616;12.872;2023-03-01T13:06:25;16.77;;;12.00;;
7683;SDS011;3884;48.616;12.872;2023-03-01T13:09:04;15.97;;;12.23;;
7683;SDS011;3884;48.616;12.872;2023-03-01T13:11:40;14.77;;;12.03;;
7683;SDS011;3884;48.616;12.872;2023-03-01T13:19:58;16.17;;;12.43;;
7683;SDS011;3884;48.616;12.872;2023-03-01T13:22:26;14.87;;;12.17;;
7683;SDS011;3884;48.616;12.872;2023-03-01T13:25:11;13.40;;;10.93;;
7683;SDS011;3884;48.616;12.872;2023-03-01T13:27:41;14.50;;;11.57;;
7683;SDS011;3884;48.616;12.872;2023-03-01T13:36:06;14.83;;;11.50;;
7683;SDS011;3884;48.616;12.872;2023-03-01T13:38:36;13.80;;;11.03;;
7683;SDS011;3884;48.616;12.872;2023-03-01T13:41:06;14.73;;;11.87;;
7683;SDS011;3884;48.616;12.872;2023-03-01T13:43:34;15.60;;;12.53;;
7683;SDS011;3884;48.616;12.872;2023-03-01T13:46:07;15.00;;;11.30;;
7683;SDS011;3884;48.616;12.872;2023-03-01T13:48:44;16.03;;;11.80;;
7683;SDS011;3884;48.616;12.872;2023-03-01T13:51:13;15.90;;;11.57;;
7683;SDS011;3884;48.616;12.872;2023-03-01T13:53:42;15.03;;;10.67;;
7683;SDS011;3884;48.616;12.872;2023-03-01T13:56:13;13.47;;;10.70;;
7683;SDS011;3884;48.616;12.872;2023-03-01T13:58:44;14.63;;;10.80;;
7683;SDS011;3884;48.616;12.872;2023-03-01T14:01:23;14.50;;;10.60;;
7683;SDS011;3884;48.616;12.872;2023-03-01T14:03:53;12.80;;;10.90;;
7683;SDS011;3884;48.616;12.872;2023-03-01T14:06:22;14.37;;;11.03;;
7683;SDS011;3884;48.616;12.872;2023-03-01T14:08:52;12.90;;;11.13;;
7683;SDS011;3884;48.616;12.872;2023-03-01T14:11:35;13.47;;;10.67;;
7683;SDS011;3884;48.616;12.872;2023-03-01T14:14:33;13.57;;;11.30;;
7683;SDS011;3884;48.616;12.872;2023-03-01T14:17:35;14.53;;;10.93;;
7683;SDS011;3884;48.616;12.872;2023-03-01T14:20:20;14.80;;;11.60;;
7683;SDS011;3884;48.616;12.872;2023-03-01T14:22:49;13.67;;;11.00;;
7683;SDS011;3884;48.616;12.872;2023-03-01T14:25:23;14.90;;;11.43;;
7683;SDS011;3884;48.616;12.872;2023-03-01T14:27:55;12.90;;;10.33;;
7683;SDS011;3884;48.616;12.872;2023-03-01T14:30:24;15.47;;;10.93;;
7683;SDS011;3884;48.616;12.872;2023-03-01T14:32:54;15.97;;;11.53;;
7683;SDS011;3884;48.616;12.872;2023-03-01T14:35:23;17.00;;;11.40;;
7683;SDS011;3884;48.616;12.872;2023-03-01T14:37:52;14.97;;;10.47;;
7683;SDS011;3884;48.616;12.872;2023-03-01T14:40:21;14.87;;;10.57;;
7683;SDS011;3884;48.616;12.872;2023-03-01T14:42:50;13.57;;;10.27;;
7683;SDS011;3884;48.616;12.872;2023-03-01T14:45:18;13.07;;;9.73;;
7683;SDS011;3884;48.616;12.872;2023-03-01T14:47:46;14.70;;;9.87;;
7683;SDS011;3884;48.616;12.872;2023-03-01T14:50:17;12.13;;;10.20;;
7683;SDS011;3884;48.616;12.872;2023-03-01T14:52:51;14.37;;;10.13;;
7683;SDS011;3884;48.616;12.872;2023-03-01T14:55:21;10.40;;;8.90;;
7683;SDS011;3884;48.616;12.872;2023-03-01T14:57:56;13.17;;;10.63;;
7683;SDS011;3884;48.616;12.872;2023-03-01T15:00:24;11.43;;;9.00;;
7683;SDS011;3884;48.616;12.872;2023-03-01T15:02:54;12.80;;;8.70;;
7683;SDS011;3884;48.616;12.872;2023-03-01T15:05:25;12.57;;;9.80;;
7683;SDS011;3884;48.616;12.872;2023-03-01T15:07:55;11.33;;;9.13;;
7683;SDS011;3884;48.616;12.872;2023-03-01T15:10:25;9.87;;;8.57;;
7683;SDS011;3884;48.616;12.872;2023-03-01T15:12:54;12.20;;;9.03;;
7683;SDS011;3884;48.616;12.872;2023-03-01T15:15:30;10.97;;;8.37;;
7683;SDS011;3884;48.616;12.872;2023-03-01T15:17:59;10.07;;;8.07;;
7683;SDS011;3884;48.616;12.872;2023-03-01T15:20:29;12.47;;;8.30;;
7683;SDS011;3884;48.616;12.872;2023-03-01T15:23:00;10.93;;;8.17;;
7683;SDS011;3884;48.616;12.872;2023-03-01T15:25:29;13.67;;;8.47;;
7683;SDS011;3884;48.616;12.872;2023-03-01T15:27:57;12.07;;;8.10;;
7683;SDS011;3884;48.616;12.872;2023-03-01T15:30:27;9.90;;;7.50;;